COA820 KMSP-KEWR
Flight info
| Callsign | COA820 |
|---|---|
| Flight time | 2h 3m |
| Altitude | 33000 |
| Route | ZMBRO7 ODI KG78K KG72M EVOTE NELLS KEEHO J584 SLT FQM3 |
| Aircraft | MD82/M-SDFGIRWY/S |
Departure
| Time | 2026-05-06 17:48 |
|---|---|
| Airport | Minneapolis–Saint Paul International Airport / Wold–Chamberlain Field (KMSP) |
Arrival
| Time | 2026-05-06 19:51 |
|---|---|
| Airport | Newark Liberty International Airport (KEWR) |
| Time | Latitude | Longitude | Altitude | Speed | Heading |
|---|---|---|---|---|---|
| 2026-05-06 17:25 | 44.88602 | -93.21278 | 826 ft | 0 kts | 222° |
| 2026-05-06 17:38 | 44.88611 | -93.21266 | 826 ft | 4 kts | 218° |
| 2026-05-06 17:38 | 44.88633 | -93.21244 | 824 ft | 4 kts | 216° |
| 2026-05-06 17:38 | 44.88650 | -93.21225 | 820 ft | 3 kts | 221° |
| 2026-05-06 17:38 | 44.88672 | -93.21205 | 823 ft | 4 kts | 198° |
| 2026-05-06 17:39 | 44.88695 | -93.21202 | 822 ft | 4 kts | 161° |
| 2026-05-06 17:39 | 44.88713 | -93.21221 | 822 ft | 3 kts | 122° |
| 2026-05-06 17:39 | 44.88715 | -93.21225 | 822 ft | 1 kts | 120° |
| 2026-05-06 17:43 | 44.88713 | -93.21221 | 822 ft | 2 kts | 118° |
| 2026-05-06 17:43 | 44.88711 | -93.21182 | 826 ft | 6 kts | 83° |
| 2026-05-06 17:43 | 44.88725 | -93.21097 | 823 ft | 11 kts | 90° |
| 2026-05-06 17:43 | 44.88685 | -93.20985 | 825 ft | 15 kts | 121° |
| 2026-05-06 17:44 | 44.88621 | -93.20839 | 822 ft | 20 kts | 121° |
| 2026-05-06 17:44 | 44.88544 | -93.20661 | 825 ft | 22 kts | 121° |
| 2026-05-06 17:44 | 44.88464 | -93.20476 | 823 ft | 22 kts | 121° |
| 2026-05-06 17:44 | 44.88383 | -93.20289 | 826 ft | 23 kts | 121° |
| 2026-05-06 17:45 | 44.88301 | -93.20097 | 826 ft | 23 kts | 121° |
| 2026-05-06 17:45 | 44.88217 | -93.19903 | 826 ft | 23 kts | 121° |
| 2026-05-06 17:45 | 44.88130 | -93.19707 | 825 ft | 24 kts | 122° |
| 2026-05-06 17:45 | 44.88056 | -93.19522 | 824 ft | 17 kts | 105° |
| 2026-05-06 17:46 | 44.88125 | -93.19440 | 825 ft | 14 kts | 346° |
| 2026-05-06 17:46 | 44.88181 | -93.19524 | 823 ft | 8 kts | 298° |
| 2026-05-06 17:46 | 44.88194 | -93.19556 | 826 ft | 3 kts | 300° |
| 2026-05-06 17:46 | 44.88203 | -93.19580 | 826 ft | 2 kts | 300° |
| 2026-05-06 17:47 | 44.88213 | -93.19604 | 824 ft | 12 kts | 300° |
| 2026-05-06 17:47 | 44.88372 | -93.19970 | 827 ft | 79 kts | 301° |
| 2026-05-06 17:47 | 44.88771 | -93.20897 | 826 ft | 140 kts | 301° |
| 2026-05-06 17:47 | 44.89351 | -93.22210 | 1192 ft | 161 kts | 302° |
| 2026-05-06 17:48 | 44.89900 | -93.23511 | 2364 ft | 149 kts | 299° |
| 2026-05-06 17:48 | 44.90640 | -93.24529 | 3230 ft | 155 kts | 337° |
| 2026-05-06 17:48 | 44.91701 | -93.24655 | 4041 ft | 157 kts | 355° |
| 2026-05-06 17:48 | 44.92838 | -93.24653 | 4631 ft | 171 kts | 356° |
| 2026-05-06 17:49 | 44.94054 | -93.24113 | 5047 ft | 204 kts | 34° |
| 2026-05-06 17:49 | 44.94875 | -93.22342 | 5442 ft | 234 kts | 74° |
| 2026-05-06 17:49 | 44.94845 | -93.19951 | 5791 ft | 258 kts | 107° |
| 2026-05-06 17:49 | 44.93902 | -93.17742 | 6140 ft | 272 kts | 138° |
| 2026-05-06 17:50 | 44.92263 | -93.16376 | 6501 ft | 279 kts | 168° |
| 2026-05-06 17:50 | 44.90348 | -93.16135 | 7023 ft | 276 kts | 184° |
| 2026-05-06 17:50 | 44.88421 | -93.15753 | 7486 ft | 287 kts | 160° |
| 2026-05-06 17:50 | 44.86715 | -93.14283 | 8086 ft | 290 kts | 144° |
| 2026-05-06 17:51 | 44.85094 | -93.12524 | 8549 ft | 298 kts | 143° |
| 2026-05-06 17:51 | 44.83444 | -93.10727 | 9292 ft | 301 kts | 143° |
| 2026-05-06 17:51 | 44.81786 | -93.08925 | 10214 ft | 302 kts | 143° |
| 2026-05-06 17:51 | 44.80062 | -93.07057 | 10558 ft | 325 kts | 144° |
| 2026-05-06 17:52 | 44.78202 | -93.05068 | 10821 ft | 347 kts | 144° |
| 2026-05-06 17:52 | 44.76213 | -93.02979 | 11269 ft | 362 kts | 145° |
| 2026-05-06 17:52 | 44.74174 | -93.00872 | 12065 ft | 365 kts | 145° |
| 2026-05-06 17:52 | 44.72112 | -92.98768 | 12891 ft | 368 kts | 146° |
| 2026-05-06 17:53 | 44.70018 | -92.96652 | 13658 ft | 373 kts | 146° |
| 2026-05-06 17:53 | 44.67897 | -92.94519 | 14374 ft | 377 kts | 147° |
| 2026-05-06 17:53 | 44.65748 | -92.92367 | 15095 ft | 381 kts | 147° |
| 2026-05-06 17:53 | 44.63580 | -92.90196 | 15807 ft | 385 kts | 147° |
| 2026-05-06 17:54 | 44.61386 | -92.87998 | 16488 ft | 390 kts | 147° |
| 2026-05-06 17:54 | 44.59168 | -92.85775 | 17176 ft | 394 kts | 147° |
| 2026-05-06 17:54 | 44.56925 | -92.83527 | 17850 ft | 398 kts | 147° |
| 2026-05-06 17:54 | 44.54662 | -92.81259 | 18474 ft | 403 kts | 147° |
| 2026-05-06 17:55 | 44.52364 | -92.78959 | 18998 ft | 407 kts | 147° |
| 2026-05-06 17:55 | 44.50051 | -92.76647 | 19597 ft | 410 kts | 147° |
| 2026-05-06 17:55 | 44.47719 | -92.74316 | 20138 ft | 414 kts | 147° |
| 2026-05-06 17:55 | 44.45561 | -92.71606 | 20615 ft | 423 kts | 130° |
| 2026-05-06 17:56 | 44.43931 | -92.68217 | 21164 ft | 428 kts | 122° |
| 2026-05-06 17:56 | 44.42439 | -92.64585 | 21666 ft | 432 kts | 121° |
| 2026-05-06 17:56 | 44.40953 | -92.60902 | 22130 ft | 437 kts | 121° |
| 2026-05-06 17:56 | 44.39449 | -92.57191 | 22632 ft | 440 kts | 121° |
| 2026-05-06 17:57 | 44.37923 | -92.53472 | 23131 ft | 443 kts | 122° |
| 2026-05-06 17:57 | 44.36360 | -92.49735 | 23606 ft | 447 kts | 122° |
| 2026-05-06 17:57 | 44.34767 | -92.45994 | 23979 ft | 450 kts | 123° |
| 2026-05-06 17:57 | 44.33146 | -92.42225 | 24354 ft | 454 kts | 123° |
| 2026-05-06 17:58 | 44.31506 | -92.38449 | 24722 ft | 457 kts | 124° |
| 2026-05-06 17:58 | 44.29845 | -92.34654 | 25105 ft | 459 kts | 124° |
| 2026-05-06 17:58 | 44.28171 | -92.30832 | 25435 ft | 463 kts | 124° |
| 2026-05-06 17:58 | 44.26484 | -92.26973 | 25743 ft | 467 kts | 124° |
| 2026-05-06 17:59 | 44.24790 | -92.23087 | 26103 ft | 470 kts | 124° |
| 2026-05-06 17:59 | 44.23090 | -92.19177 | 26418 ft | 474 kts | 124° |
| 2026-05-06 17:59 | 44.21377 | -92.15233 | 26739 ft | 477 kts | 125° |
| 2026-05-06 17:59 | 44.19656 | -92.11270 | 27038 ft | 480 kts | 125° |
| 2026-05-06 18:00 | 44.17920 | -92.07279 | 27327 ft | 483 kts | 125° |
| 2026-05-06 18:00 | 44.16172 | -92.03262 | 27596 ft | 487 kts | 125° |
| 2026-05-06 18:00 | 44.14410 | -91.99219 | 27894 ft | 490 kts | 126° |
| 2026-05-06 18:00 | 44.12639 | -91.95155 | 28187 ft | 492 kts | 126° |
| 2026-05-06 18:01 | 44.10844 | -91.91079 | 28446 ft | 495 kts | 127° |
| 2026-05-06 18:01 | 44.09017 | -91.87004 | 28694 ft | 498 kts | 127° |
| 2026-05-06 18:01 | 44.07181 | -91.82913 | 29033 ft | 499 kts | 127° |
| 2026-05-06 18:01 | 44.05357 | -91.78808 | 29435 ft | 498 kts | 127° |
| 2026-05-06 18:02 | 44.03545 | -91.74703 | 29808 ft | 498 kts | 127° |
| 2026-05-06 18:02 | 44.01737 | -91.70588 | 30141 ft | 499 kts | 127° |
| 2026-05-06 18:02 | 43.99928 | -91.66464 | 30428 ft | 500 kts | 127° |
| 2026-05-06 18:02 | 43.98121 | -91.62346 | 30753 ft | 499 kts | 127° |
| 2026-05-06 18:03 | 43.96317 | -91.58242 | 31047 ft | 498 kts | 127° |
| 2026-05-06 18:03 | 43.94511 | -91.54138 | 31306 ft | 498 kts | 127° |
| 2026-05-06 18:03 | 43.92730 | -91.50097 | 31564 ft | 498 kts | 127° |
| 2026-05-06 18:03 | 43.90869 | -91.46054 | 31805 ft | 494 kts | 133° |
| 2026-05-06 18:04 | 43.88751 | -91.42327 | 32074 ft | 489 kts | 137° |
| 2026-05-06 18:04 | 43.86532 | -91.38772 | 32331 ft | 488 kts | 138° |
| 2026-05-06 18:04 | 43.84290 | -91.35244 | 32553 ft | 488 kts | 138° |
| 2026-05-06 18:04 | 43.82052 | -91.31699 | 32792 ft | 489 kts | 138° |
| 2026-05-06 18:05 | 43.79827 | -91.28129 | 32943 ft | 491 kts | 137° |
| 2026-05-06 18:05 | 43.77616 | -91.24530 | 33002 ft | 491 kts | 137° |
| 2026-05-06 18:05 | 43.73220 | -91.17290 | 33059 ft | 491 kts | 137° |
| 2026-05-06 18:06 | 43.69576 | -91.11285 | 33072 ft | 490 kts | 137° |
| 2026-05-06 18:06 | 43.65185 | -91.04091 | 33075 ft | 489 kts | 138° |
| 2026-05-06 18:07 | 43.60781 | -90.96934 | 33076 ft | 489 kts | 139° |
| 2026-05-06 18:07 | 43.56345 | -90.89792 | 33073 ft | 491 kts | 139° |
| 2026-05-06 18:08 | 43.51903 | -90.82626 | 33069 ft | 492 kts | 139° |
| 2026-05-06 18:08 | 43.47457 | -90.75446 | 33071 ft | 493 kts | 139° |
| 2026-05-06 18:09 | 43.42998 | -90.68254 | 33067 ft | 494 kts | 139° |
| 2026-05-06 18:09 | 43.38538 | -90.61074 | 33068 ft | 493 kts | 139° |
| 2026-05-06 18:10 | 43.34079 | -90.53933 | 33066 ft | 492 kts | 140° |
| 2026-05-06 18:10 | 43.29605 | -90.46833 | 33062 ft | 491 kts | 140° |
| 2026-05-06 18:11 | 43.25135 | -90.39731 | 33040 ft | 492 kts | 140° |
| 2026-05-06 18:11 | 43.20664 | -90.32631 | 33036 ft | 492 kts | 140° |
| 2026-05-06 18:12 | 43.16188 | -90.25527 | 33031 ft | 492 kts | 140° |
| 2026-05-06 18:12 | 43.11705 | -90.18413 | 33030 ft | 493 kts | 140° |
| 2026-05-06 18:13 | 43.07223 | -90.11326 | 33025 ft | 492 kts | 140° |
| 2026-05-06 18:13 | 43.02729 | -90.04248 | 33029 ft | 493 kts | 140° |
| 2026-05-06 18:14 | 42.98369 | -89.96984 | 33030 ft | 499 kts | 134° |
| 2026-05-06 18:14 | 42.94531 | -89.89036 | 33031 ft | 503 kts | 131° |
| 2026-05-06 18:15 | 42.90770 | -89.81005 | 33026 ft | 502 kts | 131° |
| 2026-05-06 18:15 | 42.86949 | -89.73061 | 33018 ft | 500 kts | 132° |
| 2026-05-06 18:16 | 42.83091 | -89.65182 | 33013 ft | 499 kts | 132° |
| 2026-05-06 18:16 | 42.79263 | -89.57378 | 33016 ft | 499 kts | 132° |
| 2026-05-06 18:17 | 42.75416 | -89.49518 | 33022 ft | 499 kts | 133° |
| 2026-05-06 18:17 | 42.71543 | -89.41689 | 33015 ft | 499 kts | 133° |
| 2026-05-06 18:18 | 42.67663 | -89.33864 | 33018 ft | 499 kts | 133° |
| 2026-05-06 18:18 | 42.63784 | -89.26031 | 33008 ft | 500 kts | 133° |
| 2026-05-06 18:19 | 42.59903 | -89.18187 | 33000 ft | 500 kts | 133° |
| 2026-05-06 18:19 | 42.56024 | -89.10360 | 32996 ft | 500 kts | 133° |
| 2026-05-06 18:20 | 42.52142 | -89.02553 | 33003 ft | 499 kts | 133° |
| 2026-05-06 18:20 | 42.48233 | -88.94784 | 33003 ft | 498 kts | 133° |
| 2026-05-06 18:21 | 42.44325 | -88.87028 | 33009 ft | 499 kts | 134° |
| 2026-05-06 18:21 | 42.40410 | -88.79248 | 33010 ft | 501 kts | 133° |
| 2026-05-06 18:22 | 42.36492 | -88.71439 | 33014 ft | 503 kts | 131° |
| 2026-05-06 18:22 | 42.34902 | -88.67146 | 33018 ft | 520 kts | 114° |
| 2026-05-06 18:22 | 42.34140 | -88.62323 | 33032 ft | 532 kts | 97° |
| 2026-05-06 18:23 | 42.34263 | -88.57300 | 33040 ft | 539 kts | 81° |
| 2026-05-06 18:23 | 42.35250 | -88.52424 | 33041 ft | 538 kts | 64° |
| 2026-05-06 18:23 | 42.37001 | -88.48063 | 33043 ft | 532 kts | 49° |
| 2026-05-06 18:23 | 42.39436 | -88.44384 | 33045 ft | 519 kts | 32° |
| 2026-05-06 18:24 | 42.42358 | -88.41677 | 33043 ft | 501 kts | 16° |
| 2026-05-06 18:24 | 42.45548 | -88.40089 | 33042 ft | 479 kts | 1° |
| 2026-05-06 18:24 | 42.52025 | -88.38491 | 33011 ft | 472 kts | 358° |
| 2026-05-06 18:25 | 42.55251 | -88.37389 | 33001 ft | 490 kts | 13° |
| 2026-05-06 18:25 | 42.58278 | -88.35073 | 33008 ft | 510 kts | 31° |
| 2026-05-06 18:25 | 42.60839 | -88.31656 | 33018 ft | 524 kts | 48° |
| 2026-05-06 18:25 | 42.62752 | -88.27397 | 33018 ft | 534 kts | 65° |
| 2026-05-06 18:26 | 42.63879 | -88.22590 | 33018 ft | 536 kts | 81° |
| 2026-05-06 18:26 | 42.64143 | -88.17555 | 33019 ft | 532 kts | 98° |
| 2026-05-06 18:26 | 42.63533 | -88.12655 | 33015 ft | 522 kts | 114° |
| 2026-05-06 18:26 | 42.62113 | -88.08219 | 33013 ft | 506 kts | 131° |
| 2026-05-06 18:27 | 42.60002 | -88.04529 | 33010 ft | 484 kts | 148° |
| 2026-05-06 18:27 | 42.57402 | -88.01836 | 33013 ft | 462 kts | 161° |
| 2026-05-06 18:27 | 42.54748 | -87.99268 | 32994 ft | 481 kts | 146° |
| 2026-05-06 18:27 | 42.52610 | -87.95650 | 32993 ft | 505 kts | 128° |
| 2026-05-06 18:28 | 42.51206 | -87.91210 | 32999 ft | 522 kts | 110° |
| 2026-05-06 18:28 | 42.50627 | -87.86313 | 32995 ft | 533 kts | 94° |
| 2026-05-06 18:28 | 42.51020 | -87.76214 | 32979 ft | 538 kts | 91° |
| 2026-05-06 18:29 | 42.50707 | -87.66139 | 32965 ft | 533 kts | 99° |
| 2026-05-06 18:29 | 42.49941 | -87.56165 | 32966 ft | 531 kts | 100° |
| 2026-05-06 18:30 | 42.49172 | -87.46231 | 32977 ft | 530 kts | 99° |
| 2026-05-06 18:30 | 42.48480 | -87.36285 | 32994 ft | 531 kts | 99° |
| 2026-05-06 18:31 | 42.47817 | -87.26361 | 33005 ft | 533 kts | 99° |
| 2026-05-06 18:31 | 42.47108 | -87.16328 | 33014 ft | 535 kts | 99° |
| 2026-05-06 18:32 | 42.46353 | -87.06299 | 33019 ft | 536 kts | 99° |
| 2026-05-06 18:32 | 42.45606 | -86.96266 | 33023 ft | 536 kts | 99° |
| 2026-05-06 18:33 | 42.44870 | -86.86227 | 33026 ft | 536 kts | 99° |
| 2026-05-06 18:33 | 42.44137 | -86.76191 | 33027 ft | 536 kts | 99° |
| 2026-05-06 18:34 | 42.43395 | -86.66142 | 33025 ft | 537 kts | 100° |
| 2026-05-06 18:34 | 42.42600 | -86.56087 | 33032 ft | 538 kts | 100° |
| 2026-05-06 18:35 | 42.41794 | -86.46020 | 33022 ft | 539 kts | 100° |
| 2026-05-06 18:35 | 42.41000 | -86.35925 | 33018 ft | 540 kts | 100° |
| 2026-05-06 18:36 | 42.40211 | -86.25817 | 33011 ft | 541 kts | 100° |
| 2026-05-06 18:36 | 42.39419 | -86.15692 | 33015 ft | 542 kts | 100° |
| 2026-05-06 18:37 | 42.38742 | -86.07262 | 33016 ft | 543 kts | 101° |
| 2026-05-06 18:37 | 42.37733 | -85.95394 | 33018 ft | 544 kts | 101° |
| 2026-05-06 18:38 | 42.36882 | -85.85310 | 33006 ft | 543 kts | 101° |
| 2026-05-06 18:38 | 42.36036 | -85.75153 | 33001 ft | 543 kts | 101° |
| 2026-05-06 18:39 | 42.35192 | -85.65015 | 32999 ft | 543 kts | 101° |
| 2026-05-06 18:40 | 42.33895 | -85.49775 | 32997 ft | 546 kts | 101° |
| 2026-05-06 18:40 | 42.32975 | -85.39576 | 32984 ft | 547 kts | 101° |
| 2026-05-06 18:41 | 42.32059 | -85.29351 | 32980 ft | 549 kts | 101° |
| 2026-05-06 18:41 | 42.31154 | -85.19107 | 32981 ft | 550 kts | 101° |
| 2026-05-06 18:42 | 42.30247 | -85.08829 | 32983 ft | 551 kts | 101° |
| 2026-05-06 18:42 | 42.29333 | -84.98554 | 32983 ft | 551 kts | 101° |
| 2026-05-06 18:43 | 42.28368 | -84.88293 | 32984 ft | 551 kts | 102° |
| 2026-05-06 18:43 | 42.27391 | -84.78038 | 32985 ft | 551 kts | 102° |
| 2026-05-06 18:44 | 42.26426 | -84.67758 | 32985 ft | 552 kts | 102° |
| 2026-05-06 18:44 | 42.25471 | -84.57523 | 32975 ft | 554 kts | 102° |
| 2026-05-06 18:45 | 42.24507 | -84.47206 | 32977 ft | 554 kts | 102° |
| 2026-05-06 18:45 | 42.23508 | -84.36886 | 32975 ft | 555 kts | 102° |
| 2026-05-06 18:46 | 42.22469 | -84.26550 | 32979 ft | 556 kts | 102° |
| 2026-05-06 18:46 | 42.21440 | -84.16203 | 32983 ft | 557 kts | 102° |
| 2026-05-06 18:47 | 42.20421 | -84.05841 | 32982 ft | 558 kts | 102° |
| 2026-05-06 18:47 | 42.19398 | -83.95473 | 32982 ft | 557 kts | 102° |
| 2026-05-06 18:48 | 42.18365 | -83.85123 | 32976 ft | 557 kts | 102° |
| 2026-05-06 18:48 | 42.17281 | -83.74790 | 32977 ft | 556 kts | 103° |
| 2026-05-06 18:49 | 42.16194 | -83.64455 | 32973 ft | 557 kts | 103° |
| 2026-05-06 18:49 | 42.15117 | -83.54102 | 32987 ft | 559 kts | 103° |
| 2026-05-06 18:50 | 42.14043 | -83.43719 | 32975 ft | 560 kts | 102° |
| 2026-05-06 18:50 | 42.12971 | -83.33394 | 32972 ft | 561 kts | 103° |
| 2026-05-06 18:51 | 42.11841 | -83.22982 | 32961 ft | 561 kts | 103° |
| 2026-05-06 18:51 | 42.10689 | -83.12573 | 32965 ft | 562 kts | 103° |
| 2026-05-06 18:52 | 42.09549 | -83.02145 | 32965 ft | 563 kts | 103° |
| 2026-05-06 18:52 | 42.08600 | -82.93406 | 32967 ft | 564 kts | 103° |
| 2026-05-06 18:53 | 42.07472 | -82.83018 | 32982 ft | 565 kts | 103° |
| 2026-05-06 18:53 | 42.06315 | -82.72574 | 32971 ft | 563 kts | 103° |
| 2026-05-06 18:54 | 42.05114 | -82.62184 | 32963 ft | 561 kts | 104° |
| 2026-05-06 18:54 | 42.03919 | -82.51805 | 32964 ft | 561 kts | 103° |
| 2026-05-06 18:55 | 42.02734 | -82.41411 | 32963 ft | 563 kts | 103° |
| 2026-05-06 18:55 | 42.01550 | -82.30993 | 32966 ft | 564 kts | 103° |
| 2026-05-06 18:56 | 42.00357 | -82.20571 | 32966 ft | 564 kts | 103° |
| 2026-05-06 18:56 | 41.99108 | -82.10147 | 32966 ft | 564 kts | 104° |
| 2026-05-06 18:57 | 41.97853 | -81.99741 | 32967 ft | 563 kts | 104° |
| 2026-05-06 18:57 | 41.96616 | -81.89361 | 32966 ft | 562 kts | 104° |
| 2026-05-06 18:58 | 41.95383 | -81.78990 | 32968 ft | 562 kts | 104° |
| 2026-05-06 18:58 | 41.94155 | -81.68672 | 32969 ft | 563 kts | 104° |
| 2026-05-06 18:59 | 41.92875 | -81.58287 | 32968 ft | 564 kts | 104° |
| 2026-05-06 18:59 | 41.91567 | -81.47906 | 32969 ft | 565 kts | 104° |
| 2026-05-06 19:00 | 41.90267 | -81.37489 | 32971 ft | 565 kts | 104° |
| 2026-05-06 19:00 | 41.88981 | -81.27096 | 32965 ft | 564 kts | 104° |
| 2026-05-06 19:01 | 41.87696 | -81.16725 | 32963 ft | 563 kts | 104° |
| 2026-05-06 19:01 | 41.86385 | -81.06374 | 32947 ft | 562 kts | 105° |
| 2026-05-06 19:02 | 41.85029 | -80.96039 | 32950 ft | 563 kts | 105° |
| 2026-05-06 19:02 | 41.83678 | -80.85676 | 32952 ft | 564 kts | 104° |
| 2026-05-06 19:03 | 41.82339 | -80.75295 | 32951 ft | 565 kts | 104° |
| 2026-05-06 19:03 | 41.81004 | -80.64928 | 32945 ft | 564 kts | 104° |
| 2026-05-06 19:04 | 41.79728 | -80.54627 | 32950 ft | 564 kts | 102° |
| 2026-05-06 19:04 | 41.78676 | -80.44213 | 32945 ft | 564 kts | 101° |
| 2026-05-06 19:05 | 41.77677 | -80.33782 | 32935 ft | 565 kts | 101° |
| 2026-05-06 19:05 | 41.76634 | -80.23339 | 32930 ft | 565 kts | 102° |
| 2026-05-06 19:06 | 41.75567 | -80.12905 | 32929 ft | 566 kts | 102° |
| 2026-05-06 19:06 | 41.74505 | -80.02462 | 32932 ft | 566 kts | 102° |
| 2026-05-06 19:07 | 41.73413 | -79.92031 | 32923 ft | 565 kts | 102° |
| 2026-05-06 19:07 | 41.72295 | -79.81649 | 32914 ft | 563 kts | 102° |
| 2026-05-06 19:08 | 41.71185 | -79.71275 | 32908 ft | 563 kts | 102° |
| 2026-05-06 19:08 | 41.70084 | -79.60883 | 32906 ft | 564 kts | 102° |
| 2026-05-06 19:09 | 41.68985 | -79.50501 | 32894 ft | 564 kts | 102° |
| 2026-05-06 19:09 | 41.67845 | -79.40138 | 32883 ft | 563 kts | 103° |
| 2026-05-06 19:10 | 41.66673 | -79.29788 | 32880 ft | 563 kts | 102° |
| 2026-05-06 19:10 | 41.65571 | -79.19420 | 32877 ft | 563 kts | 102° |
| 2026-05-06 19:11 | 41.64405 | -79.09083 | 32860 ft | 562 kts | 103° |
| 2026-05-06 19:11 | 41.63219 | -78.98841 | 32854 ft | 561 kts | 102° |
| 2026-05-06 19:12 | 41.62040 | -78.88522 | 32862 ft | 561 kts | 102° |
| 2026-05-06 19:12 | 41.60878 | -78.78220 | 32866 ft | 561 kts | 102° |
| 2026-05-06 19:13 | 41.59714 | -78.67921 | 32860 ft | 560 kts | 102° |
| 2026-05-06 19:13 | 41.58529 | -78.57655 | 32862 ft | 558 kts | 103° |
| 2026-05-06 19:14 | 41.57297 | -78.47409 | 32851 ft | 559 kts | 103° |
| 2026-05-06 19:14 | 41.56072 | -78.37161 | 32835 ft | 559 kts | 102° |
| 2026-05-06 19:15 | 41.54861 | -78.26935 | 32827 ft | 557 kts | 103° |
| 2026-05-06 19:15 | 41.53652 | -78.16722 | 32830 ft | 557 kts | 103° |
| 2026-05-06 19:16 | 41.52437 | -78.06512 | 32833 ft | 557 kts | 103° |
| 2026-05-06 19:16 | 41.51197 | -77.96296 | 32838 ft | 558 kts | 104° |
| 2026-05-06 19:17 | 41.49769 | -77.86141 | 32836 ft | 556 kts | 105° |
| 2026-05-06 19:17 | 41.48276 | -77.76105 | 32840 ft | 555 kts | 105° |
| 2026-05-06 19:18 | 41.46809 | -77.65917 | 32841 ft | 556 kts | 105° |
| 2026-05-06 19:18 | 41.45389 | -77.55863 | 32823 ft | 555 kts | 105° |
| 2026-05-06 19:19 | 41.43955 | -77.45768 | 32809 ft | 555 kts | 105° |
| 2026-05-06 19:19 | 41.42498 | -77.35670 | 32811 ft | 556 kts | 105° |
| 2026-05-06 19:20 | 41.40996 | -77.25560 | 32813 ft | 556 kts | 105° |
| 2026-05-06 19:20 | 41.39496 | -77.15475 | 32799 ft | 554 kts | 105° |
| 2026-05-06 19:21 | 41.38008 | -77.05416 | 32786 ft | 553 kts | 105° |
| 2026-05-06 19:21 | 41.36524 | -76.95365 | 32790 ft | 554 kts | 105° |
| 2026-05-06 19:22 | 41.35030 | -76.85252 | 32143 ft | 561 kts | 105° |
| 2026-05-06 19:22 | 41.34276 | -76.80172 | 31465 ft | 556 kts | 105° |
| 2026-05-06 19:22 | 41.33360 | -76.75208 | 30688 ft | 549 kts | 113° |
| 2026-05-06 19:22 | 41.32141 | -76.70432 | 29857 ft | 544 kts | 116° |
| 2026-05-06 19:23 | 41.30812 | -76.65733 | 28902 ft | 541 kts | 117° |
| 2026-05-06 19:23 | 41.29476 | -76.61073 | 28004 ft | 537 kts | 116° |
| 2026-05-06 19:23 | 41.28168 | -76.56437 | 27144 ft | 534 kts | 116° |
| 2026-05-06 19:23 | 41.26914 | -76.51870 | 26300 ft | 516 kts | 115° |
| 2026-05-06 19:24 | 41.25735 | -76.47465 | 25493 ft | 496 kts | 115° |
| 2026-05-06 19:24 | 41.24609 | -76.43215 | 24717 ft | 479 kts | 114° |
| 2026-05-06 19:24 | 41.23518 | -76.39105 | 23965 ft | 465 kts | 114° |
| 2026-05-06 19:24 | 41.22453 | -76.35111 | 23206 ft | 453 kts | 114° |
| 2026-05-06 19:25 | 41.21405 | -76.31199 | 22403 ft | 449 kts | 114° |
| 2026-05-06 19:25 | 41.20346 | -76.27274 | 21658 ft | 452 kts | 114° |
| 2026-05-06 19:25 | 41.19293 | -76.23371 | 20952 ft | 445 kts | 114° |
| 2026-05-06 19:25 | 41.18257 | -76.19543 | 20312 ft | 436 kts | 115° |
| 2026-05-06 19:26 | 41.17246 | -76.15844 | 19915 ft | 430 kts | 114° |
| 2026-05-06 19:26 | 41.16224 | -76.12136 | 19516 ft | 426 kts | 115° |
| 2026-05-06 19:26 | 41.15212 | -76.08452 | 19177 ft | 422 kts | 115° |
| 2026-05-06 19:26 | 41.14215 | -76.04807 | 18989 ft | 418 kts | 115° |
| 2026-05-06 19:27 | 41.13221 | -76.01183 | 18922 ft | 418 kts | 115° |
| 2026-05-06 19:27 | 41.12224 | -75.97565 | 18822 ft | 413 kts | 115° |
| 2026-05-06 19:27 | 41.11266 | -75.94065 | 18059 ft | 399 kts | 115° |
| 2026-05-06 19:27 | 41.10319 | -75.90616 | 16847 ft | 397 kts | 115° |
| 2026-05-06 19:28 | 41.09388 | -75.87233 | 16188 ft | 381 kts | 115° |
| 2026-05-06 19:28 | 41.08516 | -75.84040 | 15964 ft | 360 kts | 115° |
| 2026-05-06 19:28 | 41.07646 | -75.80894 | 15682 ft | 369 kts | 116° |
| 2026-05-06 19:28 | 41.06732 | -75.77642 | 15368 ft | 383 kts | 116° |
| 2026-05-06 19:29 | 41.05794 | -75.74301 | 15008 ft | 389 kts | 115° |
| 2026-05-06 19:29 | 41.04863 | -75.70949 | 14604 ft | 391 kts | 115° |
| 2026-05-06 19:29 | 41.03924 | -75.67555 | 14143 ft | 392 kts | 115° |
| 2026-05-06 19:29 | 41.02994 | -75.64176 | 13583 ft | 390 kts | 115° |
| 2026-05-06 19:30 | 41.02064 | -75.60797 | 12839 ft | 391 kts | 115° |
| 2026-05-06 19:30 | 41.01129 | -75.57412 | 12144 ft | 391 kts | 115° |
| 2026-05-06 19:30 | 41.00202 | -75.54084 | 11889 ft | 378 kts | 115° |
| 2026-05-06 19:30 | 40.99306 | -75.50872 | 11568 ft | 368 kts | 115° |
| 2026-05-06 19:31 | 40.98419 | -75.47706 | 11064 ft | 365 kts | 115° |
| 2026-05-06 19:31 | 40.97533 | -75.44562 | 10569 ft | 362 kts | 116° |
| 2026-05-06 19:31 | 40.95848 | -75.38560 | 10382 ft | 334 kts | 116° |
| 2026-05-06 19:32 | 40.95054 | -75.35722 | 10261 ft | 323 kts | 116° |
| 2026-05-06 19:32 | 40.94282 | -75.32972 | 10084 ft | 315 kts | 116° |
| 2026-05-06 19:32 | 40.93506 | -75.30235 | 9559 ft | 320 kts | 116° |
| 2026-05-06 19:32 | 40.92723 | -75.27502 | 9085 ft | 322 kts | 116° |
| 2026-05-06 19:33 | 40.91941 | -75.24756 | 8786 ft | 317 kts | 116° |
| 2026-05-06 19:33 | 40.91178 | -75.22060 | 8584 ft | 309 kts | 115° |
| 2026-05-06 19:33 | 40.90435 | -75.19421 | 8385 ft | 303 kts | 115° |
| 2026-05-06 19:33 | 40.89711 | -75.16836 | 8151 ft | 298 kts | 115° |
| 2026-05-06 19:34 | 40.88990 | -75.14267 | 7975 ft | 297 kts | 115° |
| 2026-05-06 19:34 | 40.88270 | -75.11712 | 7887 ft | 296 kts | 115° |
| 2026-05-06 19:34 | 40.87545 | -75.09156 | 7778 ft | 299 kts | 115° |
| 2026-05-06 19:34 | 40.86809 | -75.06569 | 7606 ft | 301 kts | 115° |
| 2026-05-06 19:35 | 40.86081 | -75.03989 | 7431 ft | 299 kts | 115° |
| 2026-05-06 19:35 | 40.85352 | -75.01421 | 7278 ft | 298 kts | 115° |
| 2026-05-06 19:35 | 40.84630 | -74.98865 | 7099 ft | 297 kts | 115° |
| 2026-05-06 19:35 | 40.83909 | -74.96316 | 6970 ft | 295 kts | 115° |
| 2026-05-06 19:36 | 40.83206 | -74.93791 | 6899 ft | 290 kts | 112° |
| 2026-05-06 19:36 | 40.82879 | -74.91132 | 6704 ft | 299 kts | 89° |
| 2026-05-06 19:36 | 40.83274 | -74.88448 | 6587 ft | 299 kts | 67° |
| 2026-05-06 19:36 | 40.84180 | -74.85991 | 6452 ft | 297 kts | 60° |
| 2026-05-06 19:37 | 40.85153 | -74.83595 | 6302 ft | 294 kts | 59° |
| 2026-05-06 19:37 | 40.86134 | -74.81229 | 6156 ft | 293 kts | 59° |
| 2026-05-06 19:37 | 40.87130 | -74.78883 | 5975 ft | 290 kts | 58° |
| 2026-05-06 19:37 | 40.87788 | -74.77355 | 5865 ft | 287 kts | 58° |
| 2026-05-06 19:38 | 40.89103 | -74.74347 | 5666 ft | 279 kts | 58° |
| 2026-05-06 19:38 | 40.90066 | -74.72140 | 5503 ft | 275 kts | 58° |
| 2026-05-06 19:38 | 40.90699 | -74.70691 | 5398 ft | 273 kts | 58° |
| 2026-05-06 19:38 | 40.91653 | -74.68529 | 5232 ft | 272 kts | 58° |
| 2026-05-06 19:39 | 40.92612 | -74.66371 | 5049 ft | 271 kts | 58° |
| 2026-05-06 19:39 | 40.93888 | -74.63535 | 4810 ft | 270 kts | 58° |
| 2026-05-06 19:39 | 40.94538 | -74.62098 | 4695 ft | 269 kts | 57° |
| 2026-05-06 19:39 | 40.95648 | -74.59162 | 4380 ft | 272 kts | 77° |
| 2026-05-06 19:40 | 40.95866 | -74.57515 | 4344 ft | 266 kts | 85° |
| 2026-05-06 19:40 | 40.96053 | -74.55143 | 4778 ft | 259 kts | 86° |
| 2026-05-06 19:40 | 40.96239 | -74.52722 | 5295 ft | 267 kts | 86° |
| 2026-05-06 19:40 | 40.96423 | -74.50262 | 5686 ft | 275 kts | 86° |
| 2026-05-06 19:41 | 40.96595 | -74.47698 | 5389 ft | 284 kts | 87° |
| 2026-05-06 19:41 | 40.96756 | -74.45038 | 4818 ft | 296 kts | 86° |
| 2026-05-06 19:41 | 40.97149 | -74.42389 | 4683 ft | 288 kts | 79° |
| 2026-05-06 19:41 | 40.97464 | -74.39875 | 4696 ft | 274 kts | 85° |
| 2026-05-06 19:42 | 40.97649 | -74.37402 | 5053 ft | 264 kts | 87° |
| 2026-05-06 19:42 | 40.97822 | -74.34965 | 5323 ft | 276 kts | 87° |
| 2026-05-06 19:42 | 40.97984 | -74.32434 | 5071 ft | 277 kts | 88° |
| 2026-05-06 19:42 | 40.98144 | -74.29900 | 4830 ft | 273 kts | 88° |
| 2026-05-06 19:43 | 40.98310 | -74.27442 | 4852 ft | 267 kts | 87° |
| 2026-05-06 19:43 | 40.98463 | -74.25001 | 4829 ft | 265 kts | 88° |
| 2026-05-06 19:43 | 40.98557 | -74.22566 | 4781 ft | 266 kts | 98° |
| 2026-05-06 19:43 | 40.98158 | -74.20200 | 4567 ft | 261 kts | 115° |
| 2026-05-06 19:44 | 40.97546 | -74.17957 | 4381 ft | 259 kts | 116° |
| 2026-05-06 19:44 | 40.96927 | -74.15718 | 4219 ft | 260 kts | 116° |
| 2026-05-06 19:44 | 40.96307 | -74.13484 | 4084 ft | 260 kts | 116° |
| 2026-05-06 19:44 | 40.95667 | -74.11236 | 4009 ft | 258 kts | 118° |
| 2026-05-06 19:45 | 40.94757 | -74.09262 | 3951 ft | 246 kts | 141° |
| 2026-05-06 19:45 | 40.93545 | -74.07716 | 3906 ft | 240 kts | 146° |
| 2026-05-06 19:45 | 40.92304 | -74.06241 | 3807 ft | 239 kts | 147° |
| 2026-05-06 19:45 | 40.91066 | -74.04771 | 3655 ft | 238 kts | 147° |
| 2026-05-06 19:46 | 40.89691 | -74.03626 | 3370 ft | 231 kts | 169° |
| 2026-05-06 19:46 | 40.88155 | -74.03104 | 3162 ft | 226 kts | 176° |
| 2026-05-06 19:46 | 40.86656 | -74.03121 | 3074 ft | 208 kts | 205° |
| 2026-05-06 19:46 | 40.85547 | -74.04187 | 3033 ft | 195 kts | 229° |
| 2026-05-06 19:47 | 40.84585 | -74.05446 | 2999 ft | 196 kts | 224° |
| 2026-05-06 19:47 | 40.83501 | -74.06564 | 2999 ft | 198 kts | 219° |
| 2026-05-06 19:47 | 40.82374 | -74.07607 | 3009 ft | 199 kts | 217° |
| 2026-05-06 19:47 | 40.81215 | -74.08600 | 3032 ft | 194 kts | 215° |
| 2026-05-06 19:48 | 40.80083 | -74.09455 | 3062 ft | 182 kts | 214° |
| 2026-05-06 19:48 | 40.78994 | -74.10233 | 2957 ft | 178 kts | 212° |
| 2026-05-06 19:48 | 40.77862 | -74.11042 | 2442 ft | 192 kts | 212° |
| 2026-05-06 19:48 | 40.76666 | -74.11852 | 1901 ft | 193 kts | 210° |
| 2026-05-06 19:49 | 40.75480 | -74.12641 | 1361 ft | 187 kts | 210° |
| 2026-05-06 19:49 | 40.74355 | -74.13365 | 807 ft | 174 kts | 208° |
| 2026-05-06 19:49 | 40.73314 | -74.13945 | 604 ft | 153 kts | 204° |
| 2026-05-06 19:49 | 40.72356 | -74.14458 | 434 ft | 149 kts | 207° |
| 2026-05-06 19:50 | 40.71409 | -74.15088 | 412 ft | 156 kts | 208° |
| 2026-05-06 19:50 | 40.70438 | -74.15719 | 235 ft | 157 kts | 207° |
| 2026-05-06 19:50 | 40.69504 | -74.16313 | 36 ft | 138 kts | 207° |
| 2026-05-06 19:50 | 40.68750 | -74.16798 | 22 ft | 91 kts | 208° |
| 2026-05-06 19:51 | 40.68530 | -74.17002 | 23 ft | 21 kts | 237° |
| 2026-05-06 19:51 | 40.68478 | -74.17111 | 24 ft | 12 kts | 238° |
| 2026-05-06 19:51 | 40.68435 | -74.17197 | 24 ft | 11 kts | 236° |
| 2026-05-06 19:51 | 40.68429 | -74.17209 | 25 ft | 0 kts | 235° |
| 2026-05-06 19:52 | 40.68426 | -74.17218 | 25 ft | 4 kts | 251° |
| 2026-05-06 19:53 | 40.68438 | -74.17258 | 25 ft | 8 kts | 308° |
| 2026-05-06 19:53 | 40.68483 | -74.17348 | 25 ft | 15 kts | 296° |
| 2026-05-06 19:53 | 40.68530 | -74.17441 | 24 ft | 11 kts | 329° |
| 2026-05-06 19:53 | 40.68605 | -74.17429 | 24 ft | 12 kts | 27° |
| 2026-05-06 19:54 | 40.68685 | -74.17376 | 24 ft | 14 kts | 25° |
| 2026-05-06 19:54 | 40.68777 | -74.17342 | 24 ft | 14 kts | 332° |
| 2026-05-06 19:54 | 40.68828 | -74.17452 | 23 ft | 15 kts | 296° |
| 2026-05-06 19:54 | 40.68873 | -74.17576 | 23 ft | 13 kts | 296° |
| 2026-05-06 19:55 | 40.68906 | -74.17662 | 23 ft | 8 kts | 297° |
| 2026-05-06 19:55 | 40.68948 | -74.17681 | 24 ft | 7 kts | 20° |
| 2026-05-06 19:55 | 40.68977 | -74.17656 | 23 ft | 2 kts | 62° |
| 2026-05-06 19:55 | 40.68976 | -74.17636 | 23 ft | 3 kts | 101° |
| 2026-05-06 19:56 | 40.68976 | -74.17633 | 23 ft | 0 kts | 101° |